Terminal Aerodrome Forecast
Issued by NWS

Home | Current Version | Previous Version | Text Only | Print | Product List | Glossary On
Versions: 1 2 3 4 5 6 7 8 9 10 11 12 13 14 15 16
000
FTUS43 KIND 210520
TAFBMG
TAF
KBMG 210520Z 2106/2206 24004KT P6SM FEW035 SCT150
     FM211800 24004KT P6SM VCTS SCT250CB
     FM220000 20004KT P6SM SCT200
      AMD LTD TO CLD VIS AND WIND TIL 211300=

USA.gov is the U.S. government's official web portal to all federal, state and local government web resources and services.